createdAt,value
2022-10-03T00:02:05.678Z,100.00
2022-10-03T00:05:21.053Z,100.00
2022-10-03T00:08:44.659Z,100.00
2022-10-03T00:12:08.654Z,100.00
2022-10-03T00:15:22.103Z,100.00
2022-10-03T00:18:49.782Z,100.00
2022-10-03T00:22:09.141Z,100.00
2022-10-03T00:25:39.110Z,100.00
2022-10-03T00:29:19.434Z,100.00
2022-10-03T00:32:45.947Z,100.00
2022-10-03T00:35:56.407Z,100.00
2022-10-03T00:39:02.661Z,100.00
2022-10-03T00:42:13.697Z,100.00
2022-10-03T00:45:55.741Z,100.00
2022-10-03T00:49:48.270Z,100.00
2022-10-03T00:53:52.151Z,100.00
2022-10-03T00:57:09.758Z,100.00
2022-10-03T01:00:17.658Z,100.00
2022-10-03T01:03:35.190Z,100.00
2022-10-03T01:06:55.126Z,100.00
2022-10-03T01:10:18.622Z,100.00
2022-10-03T01:13:35.711Z,100.00
2022-10-03T01:17:01.366Z,100.00
2022-10-03T01:20:23.282Z,100.00
2022-10-03T01:23:37.390Z,100.00
2022-10-03T01:26:51.560Z,100.00
2022-10-03T01:30:23.556Z,100.00
2022-10-03T01:33:31.771Z,100.00
2022-10-03T01:37:02.461Z,100.00
2022-10-03T01:40:20.168Z,100.00
2022-10-03T01:43:45.180Z,100.00
2022-10-03T01:46:52.599Z,100.00
2022-10-03T01:50:00.612Z,100.00
2022-10-03T01:53:08.498Z,100.00
2022-10-03T01:56:34.606Z,100.00
2022-10-03T01:59:48.504Z,100.00
2022-10-03T02:03:12.853Z,100.00
2022-10-03T02:06:32.895Z,100.00
2022-10-03T02:10:01.252Z,100.00
2022-10-03T02:13:22.073Z,100.00
2022-10-03T02:16:42.750Z,100.00
2022-10-03T02:20:24.352Z,100.00
2022-10-03T02:23:32.143Z,100.00
2022-10-03T02:26:53.350Z,100.00
2022-10-03T02:30:11.780Z,100.00
2022-10-03T02:33:49.088Z,100.00
2022-10-03T02:37:21.921Z,100.00
2022-10-03T02:40:33.147Z,100.00
2022-10-03T02:43:56.783Z,100.00
2022-10-03T02:47:36.368Z,100.00
2022-10-03T02:51:15.611Z,100.00
2022-10-03T02:54:39.460Z,100.00
2022-10-03T02:58:19.433Z,100.00
2022-10-03T03:01:42.334Z,100.00
2022-10-03T03:04:56.854Z,100.00
2022-10-03T03:08:01.354Z,100.00
2022-10-03T03:11:39.902Z,100.00
2022-10-03T03:15:04.024Z,100.00
2022-10-03T03:18:50.797Z,100.00
2022-10-03T03:22:11.258Z,100.00
2022-10-03T03:25:36.695Z,100.00
2022-10-03T03:29:03.843Z,100.00
2022-10-03T03:32:14.531Z,100.00
2022-10-03T03:35:37.815Z,100.00
2022-10-03T03:38:58.328Z,100.00
2022-10-03T03:42:19.072Z,100.00
2022-10-03T03:45:25.777Z,100.00
2022-10-03T03:49:10.612Z,100.00
2022-10-03T03:52:31.424Z,100.00
2022-10-03T03:56:02.712Z,100.00
2022-10-03T03:59:07.194Z,100.00
2022-10-03T04:02:18.621Z,100.00
2022-10-03T04:05:20.431Z,100.00
2022-10-03T04:08:38.411Z,100.00
2022-10-03T04:11:54.418Z,100.00
2022-10-03T04:14:56.163Z,100.00
2022-10-03T04:18:34.907Z,100.00
2022-10-03T04:21:57.027Z,100.00
2022-10-03T04:25:05.624Z,100.00
2022-10-03T04:28:27.569Z,100.00
2022-10-03T04:31:49.550Z,100.00
2022-10-03T04:35:33.008Z,100.00
2022-10-03T04:38:46.527Z,100.00
2022-10-03T04:42:00.316Z,100.00
2022-10-03T04:45:42.999Z,100.00
2022-10-03T04:49:12.387Z,100.00
2022-10-03T04:52:33.832Z,100.00
2022-10-03T04:55:40.707Z,100.00
2022-10-03T04:59:08.627Z,100.00
2022-10-03T05:02:28.676Z,100.00
2022-10-03T05:05:33.756Z,100.00
2022-10-03T05:08:50.203Z,100.00
2022-10-03T05:12:30.036Z,100.00
2022-10-03T05:15:56.926Z,100.00
2022-10-03T05:19:17.387Z,100.00
2022-10-03T05:22:24.939Z,100.00
2022-10-03T05:25:43.825Z,100.00
2022-10-03T05:29:11.366Z,100.00
2022-10-03T05:32:28.342Z,100.00
2022-10-03T05:35:51.521Z,100.00
2022-10-03T05:39:18.359Z,100.00
2022-10-03T05:42:51.900Z,100.00
2022-10-03T05:46:02.737Z,100.00
2022-10-03T05:49:46.285Z,100.00
2022-10-03T05:53:02.705Z,100.00
2022-10-03T05:56:19.743Z,100.00
2022-10-03T05:59:59.460Z,100.00
2022-10-03T06:03:38.650Z,100.00
2022-10-03T06:06:43.648Z,100.00
2022-10-03T06:10:08.746Z,100.00
2022-10-03T06:13:19.688Z,100.00
2022-10-03T06:16:32.714Z,100.00
2022-10-03T06:19:56.654Z,100.00
2022-10-03T06:23:36.205Z,100.00
2022-10-03T06:26:46.785Z,100.00
2022-10-03T06:30:17.082Z,100.00
2022-10-03T06:33:57.737Z,100.00
2022-10-03T06:37:08.625Z,100.00
2022-10-03T06:40:26.307Z,100.00
2022-10-03T06:43:34.243Z,100.00
2022-10-03T06:47:00.639Z,100.00
2022-10-03T06:50:27.605Z,100.00
2022-10-03T06:53:45.982Z,100.00
2022-10-03T06:57:16.156Z,100.00
2022-10-03T07:00:23.433Z,100.00
2022-10-03T07:03:46.697Z,100.00
2022-10-03T07:07:17.818Z,100.00
2022-10-03T07:10:22.075Z,100.00
2022-10-03T07:13:53.118Z,100.00
2022-10-03T07:17:16.912Z,100.00
2022-10-03T07:20:43.655Z,100.00
2022-10-03T07:24:26.128Z,100.00
2022-10-03T07:28:05.856Z,100.00
2022-10-03T07:31:33.379Z,100.00
2022-10-03T07:35:14.757Z,100.00
2022-10-03T07:38:52.426Z,100.00
2022-10-03T07:42:51.733Z,100.00
2022-10-03T07:46:05.873Z,100.00
2022-10-03T07:49:18.799Z,100.00
2022-10-03T07:52:58.362Z,100.00
2022-10-03T07:56:32.868Z,100.00
2022-10-03T07:59:41.198Z,100.00
2022-10-03T08:03:11.106Z,100.00
2022-10-03T08:06:39.028Z,100.00
2022-10-03T08:09:50.766Z,100.00
2022-10-03T08:13:06.932Z,100.00
2022-10-03T08:16:08.751Z,100.00
2022-10-03T08:19:28.827Z,100.00
2022-10-03T08:22:36.527Z,100.00
2022-10-03T08:26:14.142Z,100.00
2022-10-03T08:29:40.723Z,100.00
2022-10-03T08:33:08.887Z,100.00
2022-10-03T08:36:49.677Z,100.00
2022-10-03T08:40:15.818Z,100.00
2022-10-03T08:43:35.758Z,100.00
2022-10-03T08:46:55.609Z,100.00
2022-10-03T08:50:14.240Z,100.00
2022-10-03T08:53:37.751Z,100.00
2022-10-03T08:57:10.651Z,100.00
2022-10-03T09:00:48.075Z,100.00
2022-10-03T09:03:55.908Z,100.00
2022-10-03T09:07:19.228Z,100.00
2022-10-03T09:10:27.649Z,100.00
2022-10-03T09:13:44.628Z,100.00
2022-10-03T09:17:02.331Z,100.00
2022-10-03T09:20:29.414Z,100.00
2022-10-03T09:23:52.138Z,100.00
2022-10-03T09:27:15.655Z,100.00
2022-10-03T09:30:24.864Z,100.00
2022-10-03T09:34:09.373Z,100.00
2022-10-03T09:37:39.255Z,100.00
2022-10-03T09:41:19.094Z,100.00
2022-10-03T09:44:56.686Z,100.00
2022-10-03T09:48:29.115Z,100.00
2022-10-03T09:51:37.314Z,100.00
2022-10-03T09:55:13.658Z,100.00
2022-10-03T09:59:07.011Z,100.00
2022-10-03T10:02:46.985Z,100.00
2022-10-03T10:06:07.812Z,100.00
2022-10-03T10:09:36.392Z,100.00
2022-10-03T10:12:38.379Z,100.00
2022-10-03T10:16:10.011Z,100.00
2022-10-03T10:19:23.729Z,100.00
2022-10-03T10:23:04.680Z,100.00
2022-10-03T10:26:29.233Z,100.00
2022-10-03T10:30:04.009Z,100.00
2022-10-03T10:33:24.855Z,100.00
2022-10-03T10:37:02.155Z,100.00
2022-10-03T10:40:22.889Z,100.00
2022-10-03T10:43:33.943Z,100.00
2022-10-03T10:47:04.265Z,100.00
2022-10-03T10:50:24.847Z,100.00
2022-10-03T10:53:54.778Z,100.00
2022-10-03T10:57:14.462Z,100.00
2022-10-03T11:00:22.666Z,100.00
2022-10-03T11:03:51.826Z,100.00
2022-10-03T11:07:27.306Z,100.00
2022-10-03T11:10:44.411Z,100.00
2022-10-03T11:14:24.991Z,100.00
2022-10-03T11:17:41.522Z,100.00
2022-10-03T11:21:08.188Z,100.00
2022-10-03T11:24:47.870Z,100.00
2022-10-03T11:28:11.570Z,100.00
2022-10-03T11:31:44.749Z,100.00
2022-10-03T11:35:05.705Z,100.00
2022-10-03T11:38:28.957Z,100.00
2022-10-03T11:42:02.221Z,100.00
2022-10-03T11:45:06.416Z,100.00
2022-10-03T11:48:42.614Z,100.00
2022-10-03T11:51:53.565Z,100.00
2022-10-03T11:55:15.376Z,100.00
2022-10-03T11:58:54.921Z,100.00
2022-10-03T12:01:56.798Z,100.00
2022-10-03T12:05:20.936Z,100.00
2022-10-03T12:08:54.020Z,100.00
2022-10-03T12:12:02.499Z,100.00
2022-10-03T12:15:19.637Z,100.00
2022-10-03T12:18:47.757Z,100.00
2022-10-03T12:22:08.442Z,100.00
2022-10-03T12:25:21.450Z,100.00
2022-10-03T12:28:25.825Z,100.00
2022-10-03T12:31:49.572Z,100.00
2022-10-03T12:35:39.538Z,100.00
2022-10-03T12:39:22.211Z,100.00
2022-10-03T12:42:48.510Z,100.00
2022-10-03T12:46:13.644Z,100.00
2022-10-03T12:49:50.682Z,100.00
2022-10-03T12:53:16.550Z,100.00
2022-10-03T12:56:24.131Z,100.00
2022-10-03T12:59:44.391Z,100.00
2022-10-03T13:03:11.396Z,100.00
2022-10-03T13:07:02.439Z,100.00
2022-10-03T13:10:06.665Z,100.00
2022-10-03T13:13:30.346Z,100.00
2022-10-03T13:16:41.489Z,100.00
2022-10-03T13:20:01.046Z,100.00
2022-10-03T13:23:21.179Z,100.00
2022-10-03T13:26:38.292Z,100.00
2022-10-03T13:30:05.661Z,100.00
2022-10-03T13:33:22.700Z,99.98
2022-10-03T13:36:25.647Z,99.82
2022-10-03T13:39:34.130Z,98.65
2022-10-03T13:42:39.985Z,98.11
2022-10-03T13:45:44.855Z,97.46
2022-10-03T13:49:01.032Z,96.62
2022-10-03T13:52:29.517Z,96.88
2022-10-03T13:55:56.361Z,97.30
2022-10-03T13:59:19.035Z,97.71
2022-10-03T14:02:40.502Z,97.68
2022-10-03T14:06:11.048Z,98.05
2022-10-03T14:09:21.990Z,98.33
2022-10-03T14:12:55.789Z,98.23
2022-10-03T14:16:16.848Z,98.23
2022-10-03T14:19:47.227Z,98.86
2022-10-03T14:23:22.141Z,98.55
2022-10-03T14:26:38.496Z,98.27
2022-10-03T14:29:57.541Z,98.21
2022-10-03T14:33:11.028Z,97.78
2022-10-03T14:36:32.993Z,97.71
2022-10-03T14:39:58.455Z,97.77
2022-10-03T14:43:36.068Z,97.54
2022-10-03T14:47:01.440Z,97.67
2022-10-03T14:50:05.047Z,97.73
2022-10-03T14:53:24.648Z,97.49
2022-10-03T14:56:26.916Z,96.40
2022-10-03T14:59:30.150Z,96.75
2022-10-03T15:02:36.938Z,96.83
2022-10-03T15:05:52.289Z,96.86
2022-10-03T15:08:56.247Z,96.79
2022-10-03T15:12:09.820Z,97.17
2022-10-03T15:15:19.959Z,97.68
2022-10-03T15:18:24.539Z,97.51
2022-10-03T15:21:27.856Z,97.67
2022-10-03T15:24:35.477Z,97.82
2022-10-03T15:27:40.897Z,97.93
2022-10-03T15:30:43.164Z,98.42
2022-10-03T15:33:45.969Z,98.72
2022-10-03T15:36:55.842Z,98.71
2022-10-03T15:40:01.188Z,98.75
2022-10-03T15:43:33.647Z,99.03
2022-10-03T15:46:46.501Z,99.69
2022-10-03T15:50:04.780Z,99.89
2022-10-03T15:53:35.515Z,99.99
2022-10-03T15:56:41.803Z,100.00
2022-10-03T16:00:03.768Z,100.00
2022-10-03T16:03:14.590Z,100.00
2022-10-03T16:06:24.143Z,100.00
2022-10-03T16:09:48.145Z,100.00
2022-10-03T16:13:14.144Z,100.00
2022-10-03T16:16:18.632Z,100.00
2022-10-03T16:19:40.715Z,100.00
2022-10-03T16:22:47.069Z,100.00
2022-10-03T16:25:59.040Z,100.00
2022-10-03T16:29:19.239Z,100.00
2022-10-03T16:32:24.907Z,100.00
2022-10-03T16:36:19.420Z,100.00
2022-10-03T16:39:33.565Z,100.00
2022-10-03T16:42:42.478Z,100.00
2022-10-03T16:45:46.836Z,100.00
2022-10-03T16:49:15.028Z,100.00
2022-10-03T16:52:24.139Z,100.00
2022-10-03T16:55:26.118Z,100.00
2022-10-03T16:58:30.977Z,100.00
2022-10-03T17:01:41.048Z,100.00
2022-10-03T17:04:56.027Z,100.00
2022-10-03T17:08:23.635Z,100.00
2022-10-03T17:11:29.078Z,100.00
2022-10-03T17:14:39.269Z,100.00
2022-10-03T17:18:03.229Z,100.00
2022-10-03T17:21:08.436Z,100.00
2022-10-03T17:24:14.875Z,100.00
2022-10-03T17:27:19.631Z,100.00
2022-10-03T17:30:33.683Z,100.00
2022-10-03T17:33:45.860Z,100.00
2022-10-03T17:37:05.144Z,100.00
2022-10-03T17:40:16.818Z,100.00
2022-10-03T17:43:43.618Z,100.00
2022-10-03T17:46:58.992Z,100.00
2022-10-03T17:50:10.297Z,100.00
2022-10-03T17:53:29.884Z,100.00
2022-10-03T17:56:34.134Z,100.00
2022-10-03T17:59:46.006Z,100.00
2022-10-03T18:03:08.682Z,100.00
2022-10-03T18:06:29.736Z,100.00
2022-10-03T18:09:40.844Z,100.00
2022-10-03T18:12:43.783Z,100.00
2022-10-03T18:16:04.514Z,100.00
2022-10-03T18:19:31.127Z,100.00
2022-10-03T18:22:41.121Z,100.00
2022-10-03T18:29:53.146Z,100.00
2022-10-03T18:32:58.750Z,100.00
2022-10-03T18:36:08.399Z,100.00
2022-10-03T18:39:21.179Z,100.00
2022-10-03T18:42:28.454Z,100.00
2022-10-03T18:45:38.430Z,100.00
2022-10-03T18:49:22.934Z,100.00
2022-10-03T18:52:19.844Z,100.00
2022-10-03T18:55:26.864Z,100.00
2022-10-03T18:58:33.437Z,100.00
2022-10-03T19:01:35.426Z,100.00
2022-10-03T19:04:40.979Z,100.00
2022-10-03T19:07:51.703Z,100.00
2022-10-03T19:11:22.191Z,100.00
2022-10-03T19:14:39.591Z,100.00
2022-10-03T19:17:59.990Z,100.00
2022-10-03T19:21:05.041Z,100.00
2022-10-03T19:24:34.402Z,100.00
2022-10-03T19:27:51.437Z,100.00
2022-10-03T19:31:14.602Z,100.00
2022-10-03T19:34:32.442Z,100.00
2022-10-03T19:37:45.592Z,100.00
2022-10-03T19:40:47.750Z,100.00
2022-10-03T19:43:50.159Z,100.00
2022-10-03T19:47:15.075Z,100.00
2022-10-03T19:50:33.887Z,100.00
2022-10-03T19:53:35.839Z,100.00
2022-10-03T19:56:37.914Z,100.00
2022-10-03T19:59:50.503Z,100.00
2022-10-03T20:03:16.794Z,100.00
2022-10-03T20:06:26.828Z,100.00
2022-10-03T20:09:29.814Z,100.00
2022-10-03T20:12:34.963Z,100.00
2022-10-03T20:15:44.053Z,100.00
2022-10-03T20:18:48.988Z,100.00
2022-10-03T20:21:55.587Z,100.00
2022-10-03T20:24:58.687Z,100.00
2022-10-03T20:28:03.096Z,100.00
2022-10-03T20:31:05.016Z,100.00
2022-10-03T20:34:12.921Z,100.00
2022-10-03T20:37:40.548Z,100.00
2022-10-03T20:40:45.694Z,100.00
2022-10-03T20:44:15.761Z,100.00
2022-10-03T20:47:36.318Z,100.00
2022-10-03T20:50:46.386Z,100.00
2022-10-03T20:53:53.171Z,100.00
2022-10-03T20:57:09.534Z,100.00
2022-10-03T21:00:14.626Z,100.00
2022-10-03T21:03:28.842Z,100.00
2022-10-03T21:07:04.253Z,100.00
2022-10-03T21:10:41.758Z,100.00
2022-10-03T21:14:03.752Z,100.00
2022-10-03T21:17:06.788Z,100.00
2022-10-03T21:20:14.402Z,100.00
2022-10-03T21:23:23.055Z,100.00
2022-10-03T21:26:27.854Z,100.00
2022-10-03T21:29:33.122Z,100.00
2022-10-03T21:33:00.042Z,100.00
2022-10-03T21:36:11.090Z,100.00
2022-10-03T21:39:32.814Z,100.00
2022-10-03T21:42:54.173Z,100.00
2022-10-03T21:46:24.361Z,100.00
2022-10-03T21:49:58.786Z,100.00
2022-10-03T21:53:17.399Z,100.00
2022-10-03T21:56:19.171Z,100.00
2022-10-03T21:59:33.164Z,100.00
2022-10-03T22:02:42.439Z,100.00
2022-10-03T22:06:03.436Z,100.00
2022-10-03T22:09:12.316Z,100.00
2022-10-03T22:12:14.430Z,100.00
2022-10-03T22:15:21.343Z,100.00
2022-10-03T22:18:23.511Z,100.00
2022-10-03T22:21:27.130Z,100.00
2022-10-03T22:25:04.085Z,100.00
2022-10-03T22:28:18.967Z,100.00
2022-10-03T22:31:35.068Z,100.00
2022-10-03T22:34:55.655Z,100.00
2022-10-03T22:37:57.954Z,100.00
2022-10-03T22:41:02.466Z,100.00
2022-10-03T22:44:07.434Z,100.00
2022-10-03T22:47:30.479Z,100.00
2022-10-03T22:50:34.622Z,100.00
2022-10-03T22:53:38.779Z,100.00
2022-10-03T22:56:51.390Z,100.00
2022-10-03T22:59:59.343Z,100.00
2022-10-03T23:03:10.116Z,100.00
2022-10-03T23:07:05.327Z,100.00
2022-10-03T23:10:26.446Z,100.00
2022-10-03T23:13:37.672Z,100.00
2022-10-03T23:16:51.972Z,100.00
2022-10-03T23:20:12.716Z,100.00
2022-10-03T23:23:19.689Z,100.00
2022-10-03T23:26:37.476Z,100.00
2022-10-03T23:29:39.798Z,100.00
2022-10-03T23:32:47.708Z,100.00
2022-10-03T23:35:50.735Z,100.00
2022-10-03T23:38:54.895Z,100.00
2022-10-03T23:41:59.208Z,100.00
2022-10-03T23:45:12.341Z,100.00
2022-10-03T23:48:19.073Z,100.00
2022-10-03T23:51:25.693Z,100.00
2022-10-03T23:54:28.297Z,100.00
2022-10-03T23:57:42.432Z,100.00
